sensor_id;sensor_type;location;lat;lon;timestamp;temperature;humidity
40289;DHT22;28991;52.028;5.526;2023-11-21T00:02:04;17.90;60.40
40289;DHT22;28991;52.028;5.526;2023-11-21T00:04:30;18.00;60.50
40289;DHT22;28991;52.028;5.526;2023-11-21T00:06:55;18.00;60.50
40289;DHT22;28991;52.028;5.526;2023-11-21T00:09:21;18.00;60.50
40289;DHT22;28991;52.028;5.526;2023-11-21T00:11:47;17.90;60.40
40289;DHT22;28991;52.028;5.526;2023-11-21T00:14:12;18.00;60.50
40289;DHT22;28991;52.028;5.526;2023-11-21T00:16:41;17.90;60.40
40289;DHT22;28991;52.028;5.526;2023-11-21T00:19:06;18.00;60.50
40289;DHT22;28991;52.028;5.526;2023-11-21T00:21:32;18.20;60.60
40289;DHT22;28991;52.028;5.526;2023-11-21T00:23:57;18.00;60.50
40289;DHT22;28991;52.028;5.526;2023-11-21T00:26:23;18.00;60.60
40289;DHT22;28991;52.028;5.526;2023-11-21T00:28:49;18.00;60.60
40289;DHT22;28991;52.028;5.526;2023-11-21T00:31:15;18.20;60.70
40289;DHT22;28991;52.028;5.526;2023-11-21T00:33:41;18.70;61.00
40289;DHT22;28991;52.028;5.526;2023-11-21T00:36:07;18.00;60.60
40289;DHT22;28991;52.028;5.526;2023-11-21T00:38:35;17.90;60.50
40289;DHT22;28991;52.028;5.526;2023-11-21T00:41:01;17.80;60.50
40289;DHT22;28991;52.028;5.526;2023-11-21T00:43:26;18.00;60.60
40289;DHT22;28991;52.028;5.526;2023-11-21T00:45:52;18.70;61.00
40289;DHT22;28991;52.028;5.526;2023-11-21T00:48:17;18.60;61.00
40289;DHT22;28991;52.028;5.526;2023-11-21T00:50:46;17.90;60.60
40289;DHT22;28991;52.028;5.526;2023-11-21T00:53:11;17.90;60.60
40289;DHT22;28991;52.028;5.526;2023-11-21T00:55:37;17.90;60.60
40289;DHT22;28991;52.028;5.526;2023-11-21T00:58:05;17.90;60.60
40289;DHT22;28991;52.028;5.526;2023-11-21T01:00:32;18.30;60.80
40289;DHT22;28991;52.028;5.526;2023-11-21T01:02:58;18.00;60.60
40289;DHT22;28991;52.028;5.526;2023-11-21T01:05:24;17.90;60.60
40289;DHT22;28991;52.028;5.526;2023-11-21T01:07:50;17.90;60.70
40289;DHT22;28991;52.028;5.526;2023-11-21T01:10:15;17.90;60.70
40289;DHT22;28991;52.028;5.526;2023-11-21T01:12:42;18.30;60.90
40289;DHT22;28991;52.028;5.526;2023-11-21T01:15:08;17.90;60.60
40289;DHT22;28991;52.028;5.526;2023-11-21T01:17:34;17.90;60.60
40289;DHT22;28991;52.028;5.526;2023-11-21T01:20:02;17.90;60.60
40289;DHT22;28991;52.028;5.526;2023-11-21T01:22:28;17.90;60.70
40289;DHT22;28991;52.028;5.526;2023-11-21T01:24:54;17.90;60.60
40289;DHT22;28991;52.028;5.526;2023-11-21T01:27:20;17.90;60.70
40289;DHT22;28991;52.028;5.526;2023-11-21T01:29:46;18.00;60.80
40289;DHT22;28991;52.028;5.526;2023-11-21T01:32:14;18.30;60.90
40289;DHT22;28991;52.028;5.526;2023-11-21T01:34:40;18.00;60.80
40289;DHT22;28991;52.028;5.526;2023-11-21T01:37:05;17.90;60.70
40289;DHT22;28991;52.028;5.526;2023-11-21T01:39:31;17.90;60.70
40289;DHT22;28991;52.028;5.526;2023-11-21T01:41:57;18.10;60.80
40289;DHT22;28991;52.028;5.526;2023-11-21T01:44:26;18.70;61.20
40289;DHT22;28991;52.028;5.526;2023-11-21T01:46:52;17.90;60.70
40289;DHT22;28991;52.028;5.526;2023-11-21T01:49:19;18.60;61.10
40289;DHT22;28991;52.028;5.526;2023-11-21T01:51:48;18.10;60.80
40289;DHT22;28991;52.028;5.526;2023-11-21T01:54:16;17.90;60.70
40289;DHT22;28991;52.028;5.526;2023-11-21T01:56:46;18.10;60.80
40289;DHT22;28991;52.028;5.526;2023-11-21T01:59:14;17.90;60.80
40289;DHT22;28991;52.028;5.526;2023-11-21T02:01:43;17.90;60.70
40289;DHT22;28991;52.028;5.526;2023-11-21T02:04:09;17.90;60.70
40289;DHT22;28991;52.028;5.526;2023-11-21T02:06:35;18.30;61.00
40289;DHT22;28991;52.028;5.526;2023-11-21T02:09:00;17.90;60.70
40289;DHT22;28991;52.028;5.526;2023-11-21T02:11:26;18.10;60.80
40289;DHT22;28991;52.028;5.526;2023-11-21T02:13:53;17.90;60.70
40289;DHT22;28991;52.028;5.526;2023-11-21T02:16:19;17.90;60.80
40289;DHT22;28991;52.028;5.526;2023-11-21T02:18:47;17.90;60.70
40289;DHT22;28991;52.028;5.526;2023-11-21T02:21:14;18.00;60.80
40289;DHT22;28991;52.028;5.526;2023-11-21T02:23:39;17.90;60.80
40289;DHT22;28991;52.028;5.526;2023-11-21T02:26:10;17.90;60.70
40289;DHT22;28991;52.028;5.526;2023-11-21T02:28:35;17.80;60.70
40289;DHT22;28991;52.028;5.526;2023-11-21T02:31:01;17.90;60.70
40289;DHT22;28991;52.028;5.526;2023-11-21T02:33:28;17.90;60.80
40289;DHT22;28991;52.028;5.526;2023-11-21T02:35:54;18.10;60.80
40289;DHT22;28991;52.028;5.526;2023-11-21T02:38:21;17.90;60.70
40289;DHT22;28991;52.028;5.526;2023-11-21T02:40:46;17.90;60.80
40289;DHT22;28991;52.028;5.526;2023-11-21T02:43:12;17.80;60.80
40289;DHT22;28991;52.028;5.526;2023-11-21T02:45:37;18.00;60.80
40289;DHT22;28991;52.028;5.526;2023-11-21T02:48:03;17.90;60.70
40289;DHT22;28991;52.028;5.526;2023-11-21T02:50:29;17.90;60.80
40289;DHT22;28991;52.028;5.526;2023-11-21T02:52:55;17.90;60.80
40289;DHT22;28991;52.028;5.526;2023-11-21T02:55:23;17.80;60.70
40289;DHT22;28991;52.028;5.526;2023-11-21T02:57:50;17.90;60.80
40289;DHT22;28991;52.028;5.526;2023-11-21T03:00:16;17.80;60.70
40289;DHT22;28991;52.028;5.526;2023-11-21T03:02:42;17.90;60.80
40289;DHT22;28991;52.028;5.526;2023-11-21T03:05:08;17.90;60.80
40289;DHT22;28991;52.028;5.526;2023-11-21T03:07:34;17.80;60.70
40289;DHT22;28991;52.028;5.526;2023-11-21T03:10:00;17.80;60.80
40289;DHT22;28991;52.028;5.526;2023-11-21T03:12:26;18.10;60.90
40289;DHT22;28991;52.028;5.526;2023-11-21T03:14:51;17.80;60.70
40289;DHT22;28991;52.028;5.526;2023-11-21T03:17:17;17.90;60.80
40289;DHT22;28991;52.028;5.526;2023-11-21T03:19:42;17.90;60.80
40289;DHT22;28991;52.028;5.526;2023-11-21T03:22:08;18.00;61.40
40289;DHT22;28991;52.028;5.526;2023-11-21T03:24:35;17.80;60.80
40289;DHT22;28991;52.028;5.526;2023-11-21T03:27:00;17.90;60.80
40289;DHT22;28991;52.028;5.526;2023-11-21T03:29:26;18.00;60.80
40289;DHT22;28991;52.028;5.526;2023-11-21T03:31:51;17.80;60.70
40289;DHT22;28991;52.028;5.526;2023-11-21T03:34:24;17.90;60.70
40289;DHT22;28991;52.028;5.526;2023-11-21T03:36:51;17.90;60.80
40289;DHT22;28991;52.028;5.526;2023-11-21T03:39:19;17.80;60.70
40289;DHT22;28991;52.028;5.526;2023-11-21T03:41:44;17.90;60.80
40289;DHT22;28991;52.028;5.526;2023-11-21T03:44:10;17.80;60.70
40289;DHT22;28991;52.028;5.526;2023-11-21T03:46:36;17.90;60.80
40289;DHT22;28991;52.028;5.526;2023-11-21T03:49:01;17.90;60.80
40289;DHT22;28991;52.028;5.526;2023-11-21T03:51:27;17.90;60.80
40289;DHT22;28991;52.028;5.526;2023-11-21T03:53:53;17.60;60.60
40289;DHT22;28991;52.028;5.526;2023-11-21T03:56:19;17.80;60.70
40289;DHT22;28991;52.028;5.526;2023-11-21T03:58:47;17.80;60.70
40289;DHT22;28991;52.028;5.526;2023-11-21T04:01:21;17.90;60.80
40289;DHT22;28991;52.028;5.526;2023-11-21T04:03:51;17.90;60.80
40289;DHT22;28991;52.028;5.526;2023-11-21T04:06:17;17.80;60.80
40289;DHT22;28991;52.028;5.526;2023-11-21T04:08:46;17.80;60.70
40289;DHT22;28991;52.028;5.526;2023-11-21T04:11:12;17.80;60.70
40289;DHT22;28991;52.028;5.526;2023-11-21T04:13:38;17.80;60.70
40289;DHT22;28991;52.028;5.526;2023-11-21T04:16:06;17.80;60.70
40289;DHT22;28991;52.028;5.526;2023-11-21T04:18:35;17.90;60.80
40289;DHT22;28991;52.028;5.526;2023-11-21T04:21:01;17.80;60.70
40289;DHT22;28991;52.028;5.526;2023-11-21T04:23:29;17.80;60.70
40289;DHT22;28991;52.028;5.526;2023-11-21T04:25:55;17.40;61.10
40289;DHT22;28991;52.028;5.526;2023-11-21T04:28:22;18.10;60.90
40289;DHT22;28991;52.028;5.526;2023-11-21T04:30:48;17.80;60.70
40289;DHT22;28991;52.028;5.526;2023-11-21T04:33:14;17.80;60.70
40289;DHT22;28991;52.028;5.526;2023-11-21T04:35:39;17.80;60.70
40289;DHT22;28991;52.028;5.526;2023-11-21T04:38:05;17.50;60.60
40289;DHT22;28991;52.028;5.526;2023-11-21T04:40:30;17.90;60.80
40289;DHT22;28991;52.028;5.526;2023-11-21T04:42:56;17.80;60.70
40289;DHT22;28991;52.028;5.526;2023-11-21T04:45:22;18.10;60.80
40289;DHT22;28991;52.028;5.526;2023-11-21T04:47:48;17.80;60.80
40289;DHT22;28991;52.028;5.526;2023-11-21T04:50:13;17.80;60.70
40289;DHT22;28991;52.028;5.526;2023-11-21T04:52:39;18.30;61.00
40289;DHT22;28991;52.028;5.526;2023-11-21T04:55:05;17.90;60.80
40289;DHT22;28991;52.028;5.526;2023-11-21T04:57:31;17.90;60.80
40289;DHT22;28991;52.028;5.526;2023-11-21T04:59:57;18.10;60.90
40289;DHT22;28991;52.028;5.526;2023-11-21T05:02:22;17.80;60.70
40289;DHT22;28991;52.028;5.526;2023-11-21T05:04:48;17.80;60.70
40289;DHT22;28991;52.028;5.526;2023-11-21T05:07:14;17.80;60.70
40289;DHT22;28991;52.028;5.526;2023-11-21T05:09:43;17.80;60.70
40289;DHT22;28991;52.028;5.526;2023-11-21T05:12:12;17.80;60.70
40289;DHT22;28991;52.028;5.526;2023-11-21T05:14:38;17.90;60.80
40289;DHT22;28991;52.028;5.526;2023-11-21T05:17:03;17.90;60.80
40289;DHT22;28991;52.028;5.526;2023-11-21T05:19:29;17.80;60.70
40289;DHT22;28991;52.028;5.526;2023-11-21T05:21:55;17.90;60.80
40289;DHT22;28991;52.028;5.526;2023-11-21T05:24:21;18.10;60.90
40289;DHT22;28991;52.028;5.526;2023-11-21T05:26:46;17.80;60.70
40289;DHT22;28991;52.028;5.526;2023-11-21T05:29:12;17.80;60.70
40289;DHT22;28991;52.028;5.526;2023-11-21T05:31:37;17.80;60.70
40289;DHT22;28991;52.028;5.526;2023-11-21T05:34:03;17.90;60.80
40289;DHT22;28991;52.028;5.526;2023-11-21T05:36:30;17.80;60.70
40289;DHT22;28991;52.028;5.526;2023-11-21T05:38:56;17.90;60.80
40289;DHT22;28991;52.028;5.526;2023-11-21T05:41:21;17.70;60.70
40289;DHT22;28991;52.028;5.526;2023-11-21T05:43:47;17.80;60.70
40289;DHT22;28991;52.028;5.526;2023-11-21T05:46:13;17.80;60.80
40289;DHT22;28991;52.028;5.526;2023-11-21T05:48:39;17.80;60.70
40289;DHT22;28991;52.028;5.526;2023-11-21T05:51:06;18.20;61.00
40289;DHT22;28991;52.028;5.526;2023-11-21T05:53:31;17.80;60.80
40289;DHT22;28991;52.028;5.526;2023-11-21T05:55:57;19.00;61.40
40289;DHT22;28991;52.028;5.526;2023-11-21T05:58:23;17.90;60.80
40289;DHT22;28991;52.028;5.526;2023-11-21T06:00:49;17.90;60.90
40289;DHT22;28991;52.028;5.526;2023-11-21T06:03:14;17.70;60.90
40289;DHT22;28991;52.028;5.526;2023-11-21T06:05:40;17.80;61.20
40289;DHT22;28991;52.028;5.526;2023-11-21T06:08:05;17.80;61.30
40289;DHT22;28991;52.028;5.526;2023-11-21T06:10:32;17.80;60.70
40289;DHT22;28991;52.028;5.526;2023-11-21T06:12:58;17.90;59.80
40289;DHT22;28991;52.028;5.526;2023-11-21T06:15:24;18.00;59.50
40289;DHT22;28991;52.028;5.526;2023-11-21T06:17:49;18.10;59.10
40289;DHT22;28991;52.028;5.526;2023-11-21T06:20:18;18.10;58.80
40289;DHT22;28991;52.028;5.526;2023-11-21T06:22:45;17.90;58.40
40289;DHT22;28991;52.028;5.526;2023-11-21T06:25:12;18.50;58.60
40289;DHT22;28991;52.028;5.526;2023-11-21T06:27:42;18.40;58.20
40289;DHT22;28991;52.028;5.526;2023-11-21T06:30:08;18.30;58.20
40289;DHT22;28991;52.028;5.526;2023-11-21T06:32:35;18.30;58.30
40289;DHT22;28991;52.028;5.526;2023-11-21T06:35:02;18.80;58.40
40289;DHT22;28991;52.028;5.526;2023-11-21T06:37:30;18.50;58.00
40289;DHT22;28991;52.028;5.526;2023-11-21T06:39:56;18.80;58.30
40289;DHT22;28991;52.028;5.526;2023-11-21T06:42:22;18.60;57.80
40289;DHT22;28991;52.028;5.526;2023-11-21T06:44:49;18.70;57.60
40289;DHT22;28991;52.028;5.526;2023-11-21T06:47:17;18.60;57.50
40289;DHT22;28991;52.028;5.526;2023-11-21T06:49:43;18.70;57.50
40289;DHT22;28991;52.028;5.526;2023-11-21T06:52:08;18.60;57.40
40289;DHT22;28991;52.028;5.526;2023-11-21T06:54:34;18.80;57.00
40289;DHT22;28991;52.028;5.526;2023-11-21T06:57:00;18.80;57.70
40289;DHT22;28991;52.028;5.526;2023-11-21T06:59:28;18.70;57.20
40289;DHT22;28991;52.028;5.526;2023-11-21T07:01:54;18.80;56.90
40289;DHT22;28991;52.028;5.526;2023-11-21T07:04:19;18.80;57.00
40289;DHT22;28991;52.028;5.526;2023-11-21T07:06:46;18.80;57.30
40289;DHT22;28991;52.028;5.526;2023-11-21T07:09:11;19.60;57.50
40289;DHT22;28991;52.028;5.526;2023-11-21T07:11:38;18.90;57.20
40289;DHT22;28991;52.028;5.526;2023-11-21T07:14:04;18.90;57.00
40289;DHT22;28991;52.028;5.526;2023-11-21T07:16:36;18.70;57.00
40289;DHT22;28991;52.028;5.526;2023-11-21T07:19:04;18.80;56.90
40289;DHT22;28991;52.028;5.526;2023-11-21T07:21:35;19.00;56.80
40289;DHT22;28991;52.028;5.526;2023-11-21T07:24:01;19.00;56.80
40289;DHT22;28991;52.028;5.526;2023-11-21T07:26:27;18.90;56.70
40289;DHT22;28991;52.028;5.526;2023-11-21T07:28:53;19.00;56.60
40289;DHT22;28991;52.028;5.526;2023-11-21T07:31:19;19.30;56.80
40289;DHT22;28991;52.028;5.526;2023-11-21T07:33:46;19.00;56.80
40289;DHT22;28991;52.028;5.526;2023-11-21T07:36:15;19.00;56.90
40289;DHT22;28991;52.028;5.526;2023-11-21T07:38:42;19.00;57.50
40289;DHT22;28991;52.028;5.526;2023-11-21T07:41:08;19.00;57.00
40289;DHT22;28991;52.028;5.526;2023-11-21T07:43:35;19.40;57.30
40289;DHT22;28991;52.028;5.526;2023-11-21T07:46:04;19.00;57.40
40289;DHT22;28991;52.028;5.526;2023-11-21T07:48:30;19.10;57.40
40289;DHT22;28991;52.028;5.526;2023-11-21T07:50:56;19.10;57.50
40289;DHT22;28991;52.028;5.526;2023-11-21T07:53:26;19.10;57.80
40289;DHT22;28991;52.028;5.526;2023-11-21T07:55:54;19.20;58.80
40289;DHT22;28991;52.028;5.526;2023-11-21T07:58:20;19.30;58.20
40289;DHT22;28991;52.028;5.526;2023-11-21T08:00:46;19.20;58.20
40289;DHT22;28991;52.028;5.526;2023-11-21T08:03:13;19.20;58.20
40289;DHT22;28991;52.028;5.526;2023-11-21T08:05:39;19.20;58.20
40289;DHT22;28991;52.028;5.526;2023-11-21T08:08:04;19.20;57.90
40289;DHT22;28991;52.028;5.526;2023-11-21T08:10:30;19.20;58.10
40289;DHT22;28991;52.028;5.526;2023-11-21T08:12:56;19.20;58.50
40289;DHT22;28991;52.028;5.526;2023-11-21T08:15:21;19.30;58.40
40289;DHT22;28991;52.028;5.526;2023-11-21T08:17:47;19.20;58.30
40289;DHT22;28991;52.028;5.526;2023-11-21T08:20:13;20.60;58.80
40289;DHT22;28991;52.028;5.526;2023-11-21T08:22:44;19.30;58.20
40289;DHT22;28991;52.028;5.526;2023-11-21T08:25:10;19.40;58.20
40289;DHT22;28991;52.028;5.526;2023-11-21T08:27:36;19.30;58.10
40289;DHT22;28991;52.028;5.526;2023-11-21T08:30:05;19.60;58.40
40289;DHT22;28991;52.028;5.526;2023-11-21T08:32:31;19.40;58.60
40289;DHT22;28991;52.028;5.526;2023-11-21T08:34:58;19.40;58.50
40289;DHT22;28991;52.028;5.526;2023-11-21T08:37:24;19.60;58.40
40289;DHT22;28991;52.028;5.526;2023-11-21T08:39:52;19.40;58.50
40289;DHT22;28991;52.028;5.526;2023-11-21T08:42:21;19.90;58.70
40289;DHT22;28991;52.028;5.526;2023-11-21T08:44:48;19.40;58.50
40289;DHT22;28991;52.028;5.526;2023-11-21T08:47:13;19.40;58.50
40289;DHT22;28991;52.028;5.526;2023-11-21T08:49:39;19.50;58.60
40289;DHT22;28991;52.028;5.526;2023-11-21T08:52:05;19.40;59.40
40289;DHT22;28991;52.028;5.526;2023-11-21T08:54:32;19.50;59.00
40289;DHT22;28991;52.028;5.526;2023-11-21T08:56:57;19.40;58.90
40289;DHT22;28991;52.028;5.526;2023-11-21T08:59:26;19.50;59.10
40289;DHT22;28991;52.028;5.526;2023-11-21T09:01:51;19.50;59.30
40289;DHT22;28991;52.028;5.526;2023-11-21T09:04:17;19.50;59.20
40289;DHT22;28991;52.028;5.526;2023-11-21T09:06:43;19.40;59.20
40289;DHT22;28991;52.028;5.526;2023-11-21T09:09:08;19.60;59.50
40289;DHT22;28991;52.028;5.526;2023-11-21T09:11:36;19.40;59.40
40289;DHT22;28991;52.028;5.526;2023-11-21T09:14:02;19.50;59.40
40289;DHT22;28991;52.028;5.526;2023-11-21T09:16:28;19.40;59.50
40289;DHT22;28991;52.028;5.526;2023-11-21T09:18:54;19.40;59.60
40289;DHT22;28991;52.028;5.526;2023-11-21T09:21:20;19.50;59.50
40289;DHT22;28991;52.028;5.526;2023-11-21T09:23:45;19.40;59.80
40289;DHT22;28991;52.028;5.526;2023-11-21T09:26:11;19.50;59.90
40289;DHT22;28991;52.028;5.526;2023-11-21T09:28:37;19.30;59.60
40289;DHT22;28991;52.028;5.526;2023-11-21T09:31:04;19.40;59.70
40289;DHT22;28991;52.028;5.526;2023-11-21T09:33:30;19.40;59.70
40289;DHT22;28991;52.028;5.526;2023-11-21T09:35:56;19.40;59.80
40289;DHT22;28991;52.028;5.526;2023-11-21T09:38:23;19.30;59.70
40289;DHT22;28991;52.028;5.526;2023-11-21T09:40:48;19.30;59.60
40289;DHT22;28991;52.028;5.526;2023-11-21T09:43:18;19.40;60.00
40289;DHT22;28991;52.028;5.526;2023-11-21T09:45:53;19.40;60.20
40289;DHT22;28991;52.028;5.526;2023-11-21T09:48:20;19.30;60.40
40289;DHT22;28991;52.028;5.526;2023-11-21T09:50:47;19.40;60.60
40289;DHT22;28991;52.028;5.526;2023-11-21T09:53:22;19.40;60.80
40289;DHT22;28991;52.028;5.526;2023-11-21T09:55:51;19.40;60.80
40289;DHT22;28991;52.028;5.526;2023-11-21T09:58:18;19.50;60.60
40289;DHT22;28991;52.028;5.526;2023-11-21T10:00:46;19.50;60.70
40289;DHT22;28991;52.028;5.526;2023-11-21T10:03:12;20.10;60.80
40289;DHT22;28991;52.028;5.526;2023-11-21T10:05:40;20.20;60.80
40289;DHT22;28991;52.028;5.526;2023-11-21T10:08:10;19.50;60.30
40289;DHT22;28991;52.028;5.526;2023-11-21T10:10:46;19.40;60.20
40289;DHT22;28991;52.028;5.526;2023-11-21T10:13:15;19.60;60.50
40289;DHT22;28991;52.028;5.526;2023-11-21T10:15:43;19.50;60.40
40289;DHT22;28991;52.028;5.526;2023-11-21T10:18:14;19.60;60.80
40289;DHT22;28991;52.028;5.526;2023-11-21T10:20:45;19.50;60.60
40289;DHT22;28991;52.028;5.526;2023-11-21T10:23:21;19.50;60.30
40289;DHT22;28991;52.028;5.526;2023-11-21T10:25:47;19.50;60.10
40289;DHT22;28991;52.028;5.526;2023-11-21T10:28:15;19.50;60.60
40289;DHT22;28991;52.028;5.526;2023-11-21T10:30:41;19.50;60.50
40289;DHT22;28991;52.028;5.526;2023-11-21T10:33:07;19.60;60.60
40289;DHT22;28991;52.028;5.526;2023-11-21T10:35:47;19.50;60.50
40289;DHT22;28991;52.028;5.526;2023-11-21T10:38:18;19.50;60.30
40289;DHT22;28991;52.028;5.526;2023-11-21T10:40:46;19.60;60.30
40289;DHT22;28991;52.028;5.526;2023-11-21T10:43:14;19.50;60.20
40289;DHT22;28991;52.028;5.526;2023-11-21T10:45:41;19.60;60.10
40289;DHT22;28991;52.028;5.526;2023-11-21T10:48:08;19.80;60.30
40289;DHT22;28991;52.028;5.526;2023-11-21T10:50:36;19.70;60.30
40289;DHT22;28991;52.028;5.526;2023-11-21T10:53:03;19.60;60.40
40289;DHT22;28991;52.028;5.526;2023-11-21T10:55:30;19.70;60.60
40289;DHT22;28991;52.028;5.526;2023-11-21T10:57:58;19.70;60.10
40289;DHT22;28991;52.028;5.526;2023-11-21T11:00:27;19.70;59.80
40289;DHT22;28991;52.028;5.526;2023-11-21T11:02:53;19.70;59.60
40289;DHT22;28991;52.028;5.526;2023-11-21T11:05:23;19.70;59.70
40289;DHT22;28991;52.028;5.526;2023-11-21T11:07:52;19.60;59.60
40289;DHT22;28991;52.028;5.526;2023-11-21T11:10:23;19.60;59.50
40289;DHT22;28991;52.028;5.526;2023-11-21T11:12:51;19.60;59.40
40289;DHT22;28991;52.028;5.526;2023-11-21T11:15:19;19.60;59.20
40289;DHT22;28991;52.028;5.526;2023-11-21T11:17:45;19.60;59.30
40289;DHT22;28991;52.028;5.526;2023-11-21T11:20:14;19.60;59.50
40289;DHT22;28991;52.028;5.526;2023-11-21T11:22:44;19.50;59.00
40289;DHT22;28991;52.028;5.526;2023-11-21T11:28:14;19.50;59.10
40289;DHT22;28991;52.028;5.526;2023-11-21T11:33:53;19.60;59.00
40289;DHT22;28991;52.028;5.526;2023-11-21T11:36:26;19.60;58.80
40289;DHT22;28991;52.028;5.526;2023-11-21T11:38:54;19.60;58.50
40289;DHT22;28991;52.028;5.526;2023-11-21T11:41:26;19.70;58.50
40289;DHT22;28991;52.028;5.526;2023-11-21T11:43:53;20.00;58.60
40289;DHT22;28991;52.028;5.526;2023-11-21T11:46:18;19.60;58.30
40289;DHT22;28991;52.028;5.526;2023-11-21T11:48:47;19.70;58.30
40289;DHT22;28991;52.028;5.526;2023-11-21T11:51:14;19.60;58.20
40289;DHT22;28991;52.028;5.526;2023-11-21T11:53:46;19.60;58.20
40289;DHT22;28991;52.028;5.526;2023-11-21T11:56:33;19.70;58.10
40289;DHT22;28991;52.028;5.526;2023-11-21T11:59:04;19.70;58.20
40289;DHT22;28991;52.028;5.526;2023-11-21T12:01:33;19.70;58.10
40289;DHT22;28991;52.028;5.526;2023-11-21T12:06:41;19.60;58.20
40289;DHT22;28991;52.028;5.526;2023-11-21T12:09:06;19.50;58.00
40289;DHT22;28991;52.028;5.526;2023-11-21T12:11:33;19.70;58.10
40289;DHT22;28991;52.028;5.526;2023-11-21T12:14:01;19.60;58.60
40289;DHT22;28991;52.028;5.526;2023-11-21T12:16:27;19.70;58.40
40289;DHT22;28991;52.028;5.526;2023-11-21T12:18:53;19.50;58.30
40289;DHT22;28991;52.028;5.526;2023-11-21T12:21:20;19.60;58.20
40289;DHT22;28991;52.028;5.526;2023-11-21T12:23:46;19.70;58.40
40289;DHT22;28991;52.028;5.526;2023-11-21T12:26:13;19.70;58.20
40289;DHT22;28991;52.028;5.526;2023-11-21T12:28:39;19.90;58.30
40289;DHT22;28991;52.028;5.526;2023-11-21T12:31:05;19.80;58.30
40289;DHT22;28991;52.028;5.526;2023-11-21T12:33:32;19.70;58.20
40289;DHT22;28991;52.028;5.526;2023-11-21T12:35:59;20.00;58.30
40289;DHT22;28991;52.028;5.526;2023-11-21T12:38:24;19.80;58.10
40289;DHT22;28991;52.028;5.526;2023-11-21T12:40:50;20.00;58.20
40289;DHT22;28991;52.028;5.526;2023-11-21T12:43:17;19.80;57.90
40289;DHT22;28991;52.028;5.526;2023-11-21T12:45:43;19.90;58.00
40289;DHT22;28991;52.028;5.526;2023-11-21T12:48:09;19.80;57.80
40289;DHT22;28991;52.028;5.526;2023-11-21T12:50:37;19.70;57.90
40289;DHT22;28991;52.028;5.526;2023-11-21T12:53:10;19.90;58.00
40289;DHT22;28991;52.028;5.526;2023-11-21T12:55:43;19.90;58.00
40289;DHT22;28991;52.028;5.526;2023-11-21T12:58:09;19.90;58.10
40289;DHT22;28991;52.028;5.526;2023-11-21T13:00:38;20.00;58.40
40289;DHT22;28991;52.028;5.526;2023-11-21T13:03:06;19.80;58.00
40289;DHT22;28991;52.028;5.526;2023-11-21T13:05:36;20.60;58.40
40289;DHT22;28991;52.028;5.526;2023-11-21T13:08:09;19.80;58.30
40289;DHT22;28991;52.028;5.526;2023-11-21T13:10:39;19.80;58.20
40289;DHT22;28991;52.028;5.526;2023-11-21T13:13:07;19.90;58.10
40289;DHT22;28991;52.028;5.526;2023-11-21T13:15:39;19.80;57.90
40289;DHT22;28991;52.028;5.526;2023-11-21T13:18:06;19.70;57.70
40289;DHT22;28991;52.028;5.526;2023-11-21T13:20:32;19.90;57.30
40289;DHT22;28991;52.028;5.526;2023-11-21T13:22:58;19.90;57.50
40289;DHT22;28991;52.028;5.526;2023-11-21T13:25:26;19.90;57.60
40289;DHT22;28991;52.028;5.526;2023-11-21T13:27:58;19.90;57.50
40289;DHT22;28991;52.028;5.526;2023-11-21T13:30:27;19.90;57.50
40289;DHT22;28991;52.028;5.526;2023-11-21T13:33:02;20.00;57.90
40289;DHT22;28991;52.028;5.526;2023-11-21T13:35:28;19.80;57.10
40289;DHT22;28991;52.028;5.526;2023-11-21T13:38:07;19.80;57.00
40289;DHT22;28991;52.028;5.526;2023-11-21T13:40:35;19.90;57.20
40289;DHT22;28991;52.028;5.526;2023-11-21T13:43:08;19.80;57.00
40289;DHT22;28991;52.028;5.526;2023-11-21T13:45:36;19.80;57.20
40289;DHT22;28991;52.028;5.526;2023-11-21T13:48:02;19.90;57.30
40289;DHT22;28991;52.028;5.526;2023-11-21T13:50:30;19.90;57.30
40289;DHT22;28991;52.028;5.526;2023-11-21T13:53:01;19.80;56.90
40289;DHT22;28991;52.028;5.526;2023-11-21T13:55:34;19.70;56.90
40289;DHT22;28991;52.028;5.526;2023-11-21T13:58:01;19.70;56.80
40289;DHT22;28991;52.028;5.526;2023-11-21T14:00:29;19.80;56.90
40289;DHT22;28991;52.028;5.526;2023-11-21T14:03:14;19.70;56.70
40289;DHT22;28991;52.028;5.526;2023-11-21T14:05:46;19.70;56.70
40289;DHT22;28991;52.028;5.526;2023-11-21T14:08:13;19.70;57.10
40289;DHT22;28991;52.028;5.526;2023-11-21T14:10:42;19.70;57.70
40289;DHT22;28991;52.028;5.526;2023-11-21T14:13:16;19.70;57.60
40289;DHT22;28991;52.028;5.526;2023-11-21T14:15:42;19.60;57.20
40289;DHT22;28991;52.028;5.526;2023-11-21T14:18:11;19.80;57.10
40289;DHT22;28991;52.028;5.526;2023-11-21T14:20:40;19.80;57.10
40289;DHT22;28991;52.028;5.526;2023-11-21T14:23:06;19.70;56.70
40289;DHT22;28991;52.028;5.526;2023-11-21T14:25:35;19.80;56.80
40289;DHT22;28991;52.028;5.526;2023-11-21T14:28:05;19.70;56.70
40289;DHT22;28991;52.028;5.526;2023-11-21T14:30:32;19.80;56.60
40289;DHT22;28991;52.028;5.526;2023-11-21T14:32:59;19.80;56.30
40289;DHT22;28991;52.028;5.526;2023-11-21T14:35:26;19.80;56.10
40289;DHT22;28991;52.028;5.526;2023-11-21T14:37:52;19.90;56.50
40289;DHT22;28991;52.028;5.526;2023-11-21T14:40:18;19.80;56.20
40289;DHT22;28991;52.028;5.526;2023-11-21T14:42:48;19.90;56.20
40289;DHT22;28991;52.028;5.526;2023-11-21T14:45:13;19.80;55.50
40289;DHT22;28991;52.028;5.526;2023-11-21T14:47:45;19.90;55.40
40289;DHT22;28991;52.028;5.526;2023-11-21T14:50:17;19.80;55.70
40289;DHT22;28991;52.028;5.526;2023-11-21T14:53:02;19.90;55.60
40289;DHT22;28991;52.028;5.526;2023-11-21T14:55:32;19.80;54.70
40289;DHT22;28991;52.028;5.526;2023-11-21T14:58:04;19.70;54.90
40289;DHT22;28991;52.028;5.526;2023-11-21T15:00:30;19.70;55.10
40289;DHT22;28991;52.028;5.526;2023-11-21T15:02:59;19.50;55.10
40289;DHT22;28991;52.028;5.526;2023-11-21T15:05:25;19.70;55.60
40289;DHT22;28991;52.028;5.526;2023-11-21T15:07:53;19.60;55.90
40289;DHT22;28991;52.028;5.526;2023-11-21T15:10:21;19.60;55.80
40289;DHT22;28991;52.028;5.526;2023-11-21T15:12:54;19.60;56.10
40289;DHT22;28991;52.028;5.526;2023-11-21T15:15:20;19.60;56.20
40289;DHT22;28991;52.028;5.526;2023-11-21T15:17:46;19.60;56.30
40289;DHT22;28991;52.028;5.526;2023-11-21T15:20:13;19.50;56.30
40289;DHT22;28991;52.028;5.526;2023-11-21T15:22:44;19.50;56.30
40289;DHT22;28991;52.028;5.526;2023-11-21T15:25:10;19.60;56.50
40289;DHT22;28991;52.028;5.526;2023-11-21T15:27:36;19.40;56.50
40289;DHT22;28991;52.028;5.526;2023-11-21T15:30:02;19.30;56.50
40289;DHT22;28991;52.028;5.526;2023-11-21T15:32:28;19.30;56.60
40289;DHT22;28991;52.028;5.526;2023-11-21T15:34:54;19.70;56.90
40289;DHT22;28991;52.028;5.526;2023-11-21T15:37:20;19.20;56.70
40289;DHT22;28991;52.028;5.526;2023-11-21T15:39:45;19.10;56.80